sensor_id;sensor_type;location;lat;lon;timestamp;temperature;humidity
41644;DHT22;44236;48.098;11.582;2023-11-18T00:01:44;18.90;49.10
41644;DHT22;44236;48.098;11.582;2023-11-18T00:04:10;18.90;49.00
41644;DHT22;44236;48.098;11.582;2023-11-18T00:06:41;18.90;49.40
41644;DHT22;44236;48.098;11.582;2023-11-18T00:09:12;18.90;49.20
41644;DHT22;44236;48.098;11.582;2023-11-18T00:11:41;18.90;49.20
41644;DHT22;44236;48.098;11.582;2023-11-18T00:14:08;18.90;49.10
41644;DHT22;44236;48.098;11.582;2023-11-18T00:16:33;18.90;49.10
41644;DHT22;44236;48.098;11.582;2023-11-18T00:19:00;18.80;49.10
41644;DHT22;44236;48.098;11.582;2023-11-18T00:21:27;18.90;49.30
41644;DHT22;44236;48.098;11.582;2023-11-18T00:23:53;18.80;49.10
41644;DHT22;44236;48.098;11.582;2023-11-18T00:26:19;18.80;49.30
41644;DHT22;44236;48.098;11.582;2023-11-18T00:28:45;18.80;49.50
41644;DHT22;44236;48.098;11.582;2023-11-18T00:31:10;18.80;49.30
41644;DHT22;44236;48.098;11.582;2023-11-18T00:33:36;18.80;49.50
41644;DHT22;44236;48.098;11.582;2023-11-18T00:36:02;18.80;49.30
41644;DHT22;44236;48.098;11.582;2023-11-18T00:38:28;18.80;49.40
41644;DHT22;44236;48.098;11.582;2023-11-18T00:40:53;18.80;49.30
41644;DHT22;44236;48.098;11.582;2023-11-18T00:43:19;18.80;49.40
41644;DHT22;44236;48.098;11.582;2023-11-18T00:45:44;18.80;49.40
41644;DHT22;44236;48.098;11.582;2023-11-18T00:48:10;18.80;49.50
41644;DHT22;44236;48.098;11.582;2023-11-18T00:50:36;18.80;49.40
41644;DHT22;44236;48.098;11.582;2023-11-18T00:53:01;18.80;49.60
41644;DHT22;44236;48.098;11.582;2023-11-18T00:55:27;18.70;49.20
41644;DHT22;44236;48.098;11.582;2023-11-18T00:57:52;18.70;49.30
41644;DHT22;44236;48.098;11.582;2023-11-18T01:00:18;18.70;49.30
41644;DHT22;44236;48.098;11.582;2023-11-18T01:02:47;18.70;49.30
41644;DHT22;44236;48.098;11.582;2023-11-18T01:05:14;18.70;49.30
41644;DHT22;44236;48.098;11.582;2023-11-18T01:07:40;18.70;49.30
41644;DHT22;44236;48.098;11.582;2023-11-18T01:10:07;18.70;49.40
41644;DHT22;44236;48.098;11.582;2023-11-18T01:12:34;18.60;49.20
41644;DHT22;44236;48.098;11.582;2023-11-18T01:15:00;18.60;49.30
41644;DHT22;44236;48.098;11.582;2023-11-18T01:17:25;18.60;49.30
41644;DHT22;44236;48.098;11.582;2023-11-18T01:19:51;18.60;49.20
41644;DHT22;44236;48.098;11.582;2023-11-18T01:22:16;18.60;49.20
41644;DHT22;44236;48.098;11.582;2023-11-18T01:24:44;18.60;49.30
41644;DHT22;44236;48.098;11.582;2023-11-18T01:27:10;18.60;49.30
41644;DHT22;44236;48.098;11.582;2023-11-18T01:29:36;18.60;49.50
41644;DHT22;44236;48.098;11.582;2023-11-18T01:32:02;18.60;49.50
41644;DHT22;44236;48.098;11.582;2023-11-18T01:34:37;18.60;49.60
41644;DHT22;44236;48.098;11.582;2023-11-18T01:37:06;18.60;49.80
41644;DHT22;44236;48.098;11.582;2023-11-18T01:39:36;18.60;49.60
41644;DHT22;44236;48.098;11.582;2023-11-18T01:42:03;18.60;49.60
41644;DHT22;44236;48.098;11.582;2023-11-18T01:44:29;18.50;49.60
41644;DHT22;44236;48.098;11.582;2023-11-18T01:46:56;18.60;49.70
41644;DHT22;44236;48.098;11.582;2023-11-18T01:49:23;18.60;49.50
41644;DHT22;44236;48.098;11.582;2023-11-18T01:51:50;18.50;49.50
41644;DHT22;44236;48.098;11.582;2023-11-18T01:54:16;18.60;49.70
41644;DHT22;44236;48.098;11.582;2023-11-18T01:56:46;18.50;49.60
41644;DHT22;44236;48.098;11.582;2023-11-18T01:59:12;18.50;49.70
41644;DHT22;44236;48.098;11.582;2023-11-18T02:01:46;18.50;49.60
41644;DHT22;44236;48.098;11.582;2023-11-18T02:04:14;18.50;49.80
41644;DHT22;44236;48.098;11.582;2023-11-18T02:06:40;18.50;49.80
41644;DHT22;44236;48.098;11.582;2023-11-18T02:09:05;18.50;49.50
41644;DHT22;44236;48.098;11.582;2023-11-18T02:14:31;18.50;49.60
41644;DHT22;44236;48.098;11.582;2023-11-18T02:16:59;18.50;49.60
41644;DHT22;44236;48.098;11.582;2023-11-18T02:19:29;18.50;49.60
41644;DHT22;44236;48.098;11.582;2023-11-18T02:21:55;18.50;49.80
41644;DHT22;44236;48.098;11.582;2023-11-18T02:24:29;18.40;50.20
41644;DHT22;44236;48.098;11.582;2023-11-18T02:27:00;18.50;50.10
41644;DHT22;44236;48.098;11.582;2023-11-18T02:29:28;18.40;49.90
41644;DHT22;44236;48.098;11.582;2023-11-18T02:32:09;18.40;50.00
41644;DHT22;44236;48.098;11.582;2023-11-18T02:34:39;18.50;49.90
41644;DHT22;44236;48.098;11.582;2023-11-18T02:37:07;18.50;50.00
41644;DHT22;44236;48.098;11.582;2023-11-18T02:39:38;18.40;49.80
41644;DHT22;44236;48.098;11.582;2023-11-18T02:42:07;18.40;50.10
41644;DHT22;44236;48.098;11.582;2023-11-18T02:44:35;18.40;50.00
41644;DHT22;44236;48.098;11.582;2023-11-18T02:47:02;18.40;49.70
41644;DHT22;44236;48.098;11.582;2023-11-18T02:49:30;18.40;49.90
41644;DHT22;44236;48.098;11.582;2023-11-18T02:51:56;18.40;49.80
41644;DHT22;44236;48.098;11.582;2023-11-18T02:54:22;18.40;49.70
41644;DHT22;44236;48.098;11.582;2023-11-18T02:56:48;18.40;49.70
41644;DHT22;44236;48.098;11.582;2023-11-18T02:59:15;18.40;49.90
41644;DHT22;44236;48.098;11.582;2023-11-18T03:01:40;18.40;49.80
41644;DHT22;44236;48.098;11.582;2023-11-18T03:04:06;18.30;49.70
41644;DHT22;44236;48.098;11.582;2023-11-18T03:06:32;18.40;49.90
41644;DHT22;44236;48.098;11.582;2023-11-18T03:08:58;18.30;50.00
41644;DHT22;44236;48.098;11.582;2023-11-18T03:11:24;18.30;49.50
41644;DHT22;44236;48.098;11.582;2023-11-18T03:13:49;18.30;49.70
41644;DHT22;44236;48.098;11.582;2023-11-18T03:16:15;18.30;50.00
41644;DHT22;44236;48.098;11.582;2023-11-18T03:18:42;18.30;49.80
41644;DHT22;44236;48.098;11.582;2023-11-18T03:21:15;18.30;49.90
41644;DHT22;44236;48.098;11.582;2023-11-18T03:23:41;18.30;49.70
41644;DHT22;44236;48.098;11.582;2023-11-18T03:26:10;18.30;49.90
41644;DHT22;44236;48.098;11.582;2023-11-18T03:28:38;18.30;50.00
41644;DHT22;44236;48.098;11.582;2023-11-18T03:31:06;18.30;49.80
41644;DHT22;44236;48.098;11.582;2023-11-18T03:33:32;18.30;49.80
41644;DHT22;44236;48.098;11.582;2023-11-18T03:35:58;18.30;50.00
41644;DHT22;44236;48.098;11.582;2023-11-18T03:38:24;18.30;50.00
41644;DHT22;44236;48.098;11.582;2023-11-18T03:40:50;18.30;50.10
41644;DHT22;44236;48.098;11.582;2023-11-18T03:43:17;18.20;49.90
41644;DHT22;44236;48.098;11.582;2023-11-18T03:45:43;18.30;50.00
41644;DHT22;44236;48.098;11.582;2023-11-18T03:48:09;18.20;49.80
41644;DHT22;44236;48.098;11.582;2023-11-18T03:50:35;18.20;49.90
41644;DHT22;44236;48.098;11.582;2023-11-18T03:53:00;18.20;49.90
41644;DHT22;44236;48.098;11.582;2023-11-18T03:55:29;18.20;49.80
41644;DHT22;44236;48.098;11.582;2023-11-18T03:57:55;18.20;50.00
41644;DHT22;44236;48.098;11.582;2023-11-18T04:00:22;18.20;49.90
41644;DHT22;44236;48.098;11.582;2023-11-18T04:02:48;18.20;49.90
41644;DHT22;44236;48.098;11.582;2023-11-18T04:05:14;18.20;50.00
41644;DHT22;44236;48.098;11.582;2023-11-18T04:07:39;18.20;49.80
41644;DHT22;44236;48.098;11.582;2023-11-18T04:10:08;18.20;49.90
41644;DHT22;44236;48.098;11.582;2023-11-18T04:12:39;18.20;50.00
41644;DHT22;44236;48.098;11.582;2023-11-18T04:15:05;18.10;49.90
41644;DHT22;44236;48.098;11.582;2023-11-18T04:17:31;18.20;49.90
41644;DHT22;44236;48.098;11.582;2023-11-18T04:19:57;18.20;50.00
41644;DHT22;44236;48.098;11.582;2023-11-18T04:22:23;18.20;50.20
41644;DHT22;44236;48.098;11.582;2023-11-18T04:24:49;18.10;49.80
41644;DHT22;44236;48.098;11.582;2023-11-18T04:27:15;18.10;49.50
41644;DHT22;44236;48.098;11.582;2023-11-18T04:29:41;18.10;49.90
41644;DHT22;44236;48.098;11.582;2023-11-18T04:32:07;18.10;50.20
41644;DHT22;44236;48.098;11.582;2023-11-18T04:34:37;18.10;50.30
41644;DHT22;44236;48.098;11.582;2023-11-18T04:37:05;18.10;49.90
41644;DHT22;44236;48.098;11.582;2023-11-18T04:39:34;18.10;50.10
41644;DHT22;44236;48.098;11.582;2023-11-18T04:42:00;18.10;50.00
41644;DHT22;44236;48.098;11.582;2023-11-18T04:44:26;18.10;50.10
41644;DHT22;44236;48.098;11.582;2023-11-18T04:46:52;18.10;50.00
41644;DHT22;44236;48.098;11.582;2023-11-18T04:49:18;18.10;50.10
41644;DHT22;44236;48.098;11.582;2023-11-18T04:51:44;18.10;50.10
41644;DHT22;44236;48.098;11.582;2023-11-18T04:54:10;18.10;49.90
41644;DHT22;44236;48.098;11.582;2023-11-18T04:56:36;18.00;49.80
41644;DHT22;44236;48.098;11.582;2023-11-18T04:59:03;18.00;49.90
41644;DHT22;44236;48.098;11.582;2023-11-18T05:01:30;18.00;49.80
41644;DHT22;44236;48.098;11.582;2023-11-18T05:03:59;18.00;49.80
41644;DHT22;44236;48.098;11.582;2023-11-18T05:06:25;18.00;49.70
41644;DHT22;44236;48.098;11.582;2023-11-18T05:08:51;18.00;50.10
41644;DHT22;44236;48.098;11.582;2023-11-18T05:11:17;18.00;50.00
41644;DHT22;44236;48.098;11.582;2023-11-18T05:13:43;18.00;50.10
41644;DHT22;44236;48.098;11.582;2023-11-18T05:16:08;18.00;50.10
41644;DHT22;44236;48.098;11.582;2023-11-18T05:18:36;18.10;50.00
41644;DHT22;44236;48.098;11.582;2023-11-18T05:21:02;18.10;49.80
41644;DHT22;44236;48.098;11.582;2023-11-18T05:23:30;18.20;50.30
41644;DHT22;44236;48.098;11.582;2023-11-18T05:25:57;18.20;49.80
41644;DHT22;44236;48.098;11.582;2023-11-18T05:28:24;18.20;49.10
41644;DHT22;44236;48.098;11.582;2023-11-18T05:30:50;18.30;49.50
41644;DHT22;44236;48.098;11.582;2023-11-18T05:33:16;18.30;49.40
41644;DHT22;44236;48.098;11.582;2023-11-18T05:35:46;18.30;49.20
41644;DHT22;44236;48.098;11.582;2023-11-18T05:38:19;18.30;49.30
41644;DHT22;44236;48.098;11.582;2023-11-18T05:40:47;18.40;49.10
41644;DHT22;44236;48.098;11.582;2023-11-18T05:43:32;18.40;49.10
41644;DHT22;44236;48.098;11.582;2023-11-18T05:46:07;18.40;49.00
41644;DHT22;44236;48.098;11.582;2023-11-18T05:48:50;18.40;49.00
41644;DHT22;44236;48.098;11.582;2023-11-18T05:51:20;18.50;49.00
41644;DHT22;44236;48.098;11.582;2023-11-18T05:53:47;18.50;48.80
41644;DHT22;44236;48.098;11.582;2023-11-18T05:56:15;18.50;48.60
41644;DHT22;44236;48.098;11.582;2023-11-18T05:58:44;18.50;48.70
41644;DHT22;44236;48.098;11.582;2023-11-18T06:01:10;18.60;48.70
41644;DHT22;44236;48.098;11.582;2023-11-18T06:03:38;18.50;48.60
41644;DHT22;44236;48.098;11.582;2023-11-18T06:06:08;18.60;48.60
41644;DHT22;44236;48.098;11.582;2023-11-18T06:08:36;18.60;48.40
41644;DHT22;44236;48.098;11.582;2023-11-18T06:11:02;18.60;48.60
41644;DHT22;44236;48.098;11.582;2023-11-18T06:13:42;18.60;48.40
41644;DHT22;44236;48.098;11.582;2023-11-18T06:16:16;18.60;48.50
41644;DHT22;44236;48.098;11.582;2023-11-18T06:18:43;18.70;48.60
41644;DHT22;44236;48.098;11.582;2023-11-18T06:21:16;18.70;48.50
41644;DHT22;44236;48.098;11.582;2023-11-18T06:23:43;18.70;48.40
41644;DHT22;44236;48.098;11.582;2023-11-18T06:26:09;18.70;49.00
41644;DHT22;44236;48.098;11.582;2023-11-18T06:28:42;18.70;48.50
41644;DHT22;44236;48.098;11.582;2023-11-18T06:31:08;19.50;48.80
41644;DHT22;44236;48.098;11.582;2023-11-18T06:33:52;18.80;48.10
41644;DHT22;44236;48.098;11.582;2023-11-18T06:36:18;18.80;48.60
41644;DHT22;44236;48.098;11.582;2023-11-18T06:38:45;18.80;47.10
41644;DHT22;44236;48.098;11.582;2023-11-18T06:41:12;18.20;47.50
41644;DHT22;44236;48.098;11.582;2023-11-18T06:43:39;18.20;49.00
41644;DHT22;44236;48.098;11.582;2023-11-18T06:46:30;18.20;49.10
41644;DHT22;44236;48.098;11.582;2023-11-18T06:49:00;18.30;49.10
41644;DHT22;44236;48.098;11.582;2023-11-18T06:51:30;18.40;48.60
41644;DHT22;44236;48.098;11.582;2023-11-18T06:53:57;18.60;48.90
41644;DHT22;44236;48.098;11.582;2023-11-18T06:56:24;18.60;48.50
41644;DHT22;44236;48.098;11.582;2023-11-18T06:58:50;18.70;48.40
41644;DHT22;44236;48.098;11.582;2023-11-18T07:01:16;18.70;48.40
41644;DHT22;44236;48.098;11.582;2023-11-18T07:03:42;18.80;48.70
41644;DHT22;44236;48.098;11.582;2023-11-18T07:06:09;18.80;48.40
41644;DHT22;44236;48.098;11.582;2023-11-18T07:08:35;18.90;48.40
41644;DHT22;44236;48.098;11.582;2023-11-18T07:11:02;18.90;48.50
41644;DHT22;44236;48.098;11.582;2023-11-18T07:13:28;18.90;48.40
41644;DHT22;44236;48.098;11.582;2023-11-18T07:15:54;18.90;48.50
41644;DHT22;44236;48.098;11.582;2023-11-18T07:18:22;19.00;48.40
41644;DHT22;44236;48.098;11.582;2023-11-18T07:20:48;19.00;49.00
41644;DHT22;44236;48.098;11.582;2023-11-18T07:23:14;19.00;48.80
41644;DHT22;44236;48.098;11.582;2023-11-18T07:25:43;19.00;48.30
41644;DHT22;44236;48.098;11.582;2023-11-18T07:28:10;19.00;48.40
41644;DHT22;44236;48.098;11.582;2023-11-18T07:30:36;19.00;48.30
41644;DHT22;44236;48.098;11.582;2023-11-18T07:33:02;19.00;48.60
41644;DHT22;44236;48.098;11.582;2023-11-18T07:35:28;19.10;48.20
41644;DHT22;44236;48.098;11.582;2023-11-18T07:37:55;19.10;49.10
41644;DHT22;44236;48.098;11.582;2023-11-18T07:40:22;19.10;48.40
41644;DHT22;44236;48.098;11.582;2023-11-18T07:42:54;19.10;48.40
41644;DHT22;44236;48.098;11.582;2023-11-18T07:45:21;19.10;49.70
41644;DHT22;44236;48.098;11.582;2023-11-18T07:47:49;19.20;48.10
41644;DHT22;44236;48.098;11.582;2023-11-18T07:50:19;19.20;48.10
41644;DHT22;44236;48.098;11.582;2023-11-18T07:52:47;19.20;48.20
41644;DHT22;44236;48.098;11.582;2023-11-18T07:55:13;19.20;48.10
41644;DHT22;44236;48.098;11.582;2023-11-18T07:57:40;19.20;48.30
41644;DHT22;44236;48.098;11.582;2023-11-18T08:00:06;19.20;48.30
41644;DHT22;44236;48.098;11.582;2023-11-18T08:02:35;19.30;48.80
41644;DHT22;44236;48.098;11.582;2023-11-18T08:05:02;19.30;48.80
41644;DHT22;44236;48.098;11.582;2023-11-18T08:07:28;19.30;48.40
41644;DHT22;44236;48.098;11.582;2023-11-18T08:09:55;19.30;48.50
41644;DHT22;44236;48.098;11.582;2023-11-18T08:12:23;19.30;48.80
41644;DHT22;44236;48.098;11.582;2023-11-18T08:14:48;19.30;48.30
41644;DHT22;44236;48.098;11.582;2023-11-18T08:17:14;19.30;48.40
41644;DHT22;44236;48.098;11.582;2023-11-18T08:19:39;19.30;48.40
41644;DHT22;44236;48.098;11.582;2023-11-18T08:22:05;19.30;48.20
41644;DHT22;44236;48.098;11.582;2023-11-18T08:24:31;19.30;48.40
41644;DHT22;44236;48.098;11.582;2023-11-18T08:26:59;19.30;48.60
41644;DHT22;44236;48.098;11.582;2023-11-18T08:29:24;19.30;48.40
41644;DHT22;44236;48.098;11.582;2023-11-18T08:31:56;19.30;48.40
41644;DHT22;44236;48.098;11.582;2023-11-18T08:34:22;19.40;48.50
41644;DHT22;44236;48.098;11.582;2023-11-18T08:36:47;19.40;48.50
41644;DHT22;44236;48.098;11.582;2023-11-18T08:39:13;19.40;48.70
41644;DHT22;44236;48.098;11.582;2023-11-18T08:41:41;19.40;48.40
41644;DHT22;44236;48.098;11.582;2023-11-18T08:44:09;19.40;48.80
41644;DHT22;44236;48.098;11.582;2023-11-18T08:46:38;19.40;48.70
41644;DHT22;44236;48.098;11.582;2023-11-18T08:49:04;19.50;48.40
41644;DHT22;44236;48.098;11.582;2023-11-18T08:51:37;19.50;48.60
41644;DHT22;44236;48.098;11.582;2023-11-18T08:54:02;19.50;48.60
41644;DHT22;44236;48.098;11.582;2023-11-18T08:56:48;19.50;48.60
41644;DHT22;44236;48.098;11.582;2023-11-18T08:59:19;19.50;49.10
41644;DHT22;44236;48.098;11.582;2023-11-18T09:01:54;19.50;48.70
41644;DHT22;44236;48.098;11.582;2023-11-18T09:04:27;19.50;49.00
41644;DHT22;44236;48.098;11.582;2023-11-18T09:06:53;19.50;49.00
41644;DHT22;44236;48.098;11.582;2023-11-18T09:09:20;19.50;49.20
41644;DHT22;44236;48.098;11.582;2023-11-18T09:11:52;19.50;50.50
41644;DHT22;44236;48.098;11.582;2023-11-18T09:14:18;19.40;46.10
41644;DHT22;44236;48.098;11.582;2023-11-18T09:16:44;19.30;48.80
41644;DHT22;44236;48.098;11.582;2023-11-18T09:19:10;19.30;49.00
41644;DHT22;44236;48.098;11.582;2023-11-18T09:21:36;19.40;48.90
41644;DHT22;44236;48.098;11.582;2023-11-18T09:24:02;19.40;48.90
41644;DHT22;44236;48.098;11.582;2023-11-18T09:26:33;19.50;48.60
41644;DHT22;44236;48.098;11.582;2023-11-18T09:29:00;19.50;48.60
41644;DHT22;44236;48.098;11.582;2023-11-18T09:31:29;19.50;49.30
41644;DHT22;44236;48.098;11.582;2023-11-18T09:33:56;19.50;49.30
41644;DHT22;44236;48.098;11.582;2023-11-18T09:36:23;19.50;48.90
41644;DHT22;44236;48.098;11.582;2023-11-18T09:38:48;19.60;48.90
41644;DHT22;44236;48.098;11.582;2023-11-18T09:41:19;19.60;48.90
41644;DHT22;44236;48.098;11.582;2023-11-18T09:43:45;19.60;49.00
41644;DHT22;44236;48.098;11.582;2023-11-18T09:48:53;19.10;43.70
41644;DHT22;44236;48.098;11.582;2023-11-18T09:51:31;18.50;44.50
41644;DHT22;44236;48.098;11.582;2023-11-18T09:54:00;18.20;44.80
41644;DHT22;44236;48.098;11.582;2023-11-18T10:00:03;18.50;48.80
41644;DHT22;44236;48.098;11.582;2023-11-18T10:02:48;18.70;48.80
41644;DHT22;44236;48.098;11.582;2023-11-18T10:05:16;18.90;48.60
41644;DHT22;44236;48.098;11.582;2023-11-18T10:07:46;19.10;48.40
41644;DHT22;44236;48.098;11.582;2023-11-18T10:10:13;19.20;48.00
41644;DHT22;44236;48.098;11.582;2023-11-18T10:12:45;19.30;48.00
41644;DHT22;44236;48.098;11.582;2023-11-18T10:15:15;19.50;47.80
41644;DHT22;44236;48.098;11.582;2023-11-18T10:17:43;19.50;48.40
41644;DHT22;44236;48.098;11.582;2023-11-18T10:23:14;19.60;47.80
41644;DHT22;44236;48.098;11.582;2023-11-18T10:25:52;19.60;47.80
41644;DHT22;44236;48.098;11.582;2023-11-18T10:28:28;19.70;47.70
41644;DHT22;44236;48.098;11.582;2023-11-18T10:30:59;19.60;47.80
41644;DHT22;44236;48.098;11.582;2023-11-18T10:33:32;19.70;47.90
41644;DHT22;44236;48.098;11.582;2023-11-18T10:35:59;19.70;47.80
41644;DHT22;44236;48.098;11.582;2023-11-18T10:38:29;19.70;48.40
41644;DHT22;44236;48.098;11.582;2023-11-18T10:40:59;19.70;47.90
41644;DHT22;44236;48.098;11.582;2023-11-18T10:43:28;19.70;48.00
41644;DHT22;44236;48.098;11.582;2023-11-18T10:46:15;19.70;48.10
41644;DHT22;44236;48.098;11.582;2023-11-18T10:48:47;19.60;42.70
41644;DHT22;44236;48.098;11.582;2023-11-18T10:51:15;19.40;42.20
41644;DHT22;44236;48.098;11.582;2023-11-18T10:53:42;19.30;43.00
41644;DHT22;44236;48.098;11.582;2023-11-18T10:56:25;19.30;45.60
41644;DHT22;44236;48.098;11.582;2023-11-18T10:59:05;19.30;46.60
41644;DHT22;44236;48.098;11.582;2023-11-18T11:01:37;19.40;47.00
41644;DHT22;44236;48.098;11.582;2023-11-18T11:04:12;19.50;47.30
41644;DHT22;44236;48.098;11.582;2023-11-18T11:06:43;19.50;47.20
41644;DHT22;44236;48.098;11.582;2023-11-18T11:09:11;19.60;47.30
41644;DHT22;44236;48.098;11.582;2023-11-18T11:11:54;19.60;47.30
41644;DHT22;44236;48.098;11.582;2023-11-18T11:14:27;19.70;47.30
41644;DHT22;44236;48.098;11.582;2023-11-18T11:17:05;19.70;47.30
41644;DHT22;44236;48.098;11.582;2023-11-18T11:22:51;19.70;47.30
41644;DHT22;44236;48.098;11.582;2023-11-18T11:26:13;19.70;47.20
41644;DHT22;44236;48.098;11.582;2023-11-18T11:28:20;19.80;47.50
41644;DHT22;44236;48.098;11.582;2023-11-18T11:30:58;19.80;47.60
41644;DHT22;44236;48.098;11.582;2023-11-18T11:33:33;19.80;47.40
41644;DHT22;44236;48.098;11.582;2023-11-18T11:36:11;19.80;47.60
41644;DHT22;44236;48.098;11.582;2023-11-18T11:38:40;19.80;47.80
41644;DHT22;44236;48.098;11.582;2023-11-18T11:41:07;19.80;48.00
41644;DHT22;44236;48.098;11.582;2023-11-18T11:43:37;19.80;47.90
41644;DHT22;44236;48.098;11.582;2023-11-18T11:46:06;19.80;47.90
41644;DHT22;44236;48.098;11.582;2023-11-18T11:48:38;19.80;48.30
41644;DHT22;44236;48.098;11.582;2023-11-18T11:51:20;19.90;48.20
41644;DHT22;44236;48.098;11.582;2023-11-18T11:54:11;19.90;48.40
41644;DHT22;44236;48.098;11.582;2023-11-18T11:56:48;19.90;48.60
41644;DHT22;44236;48.098;11.582;2023-11-18T12:02:25;19.90;49.10
41644;DHT22;44236;48.098;11.582;2023-11-18T12:04:55;19.90;49.20
41644;DHT22;44236;48.098;11.582;2023-11-18T12:07:25;20.00;49.30
41644;DHT22;44236;48.098;11.582;2023-11-18T12:09:59;20.00;49.40
41644;DHT22;44236;48.098;11.582;2023-11-18T12:12:26;20.00;49.50
41644;DHT22;44236;48.098;11.582;2023-11-18T12:14:54;20.00;49.40
41644;DHT22;44236;48.098;11.582;2023-11-18T12:17:26;20.00;49.40
41644;DHT22;44236;48.098;11.582;2023-11-18T12:19:57;20.00;49.50
41644;DHT22;44236;48.098;11.582;2023-11-18T12:23:04;20.00;49.60
41644;DHT22;44236;48.098;11.582;2023-11-18T12:25:39;20.00;49.60
41644;DHT22;44236;48.098;11.582;2023-11-18T12:28:10;20.00;49.70
41644;DHT22;44236;48.098;11.582;2023-11-18T12:33:04;20.10;49.40
41644;DHT22;44236;48.098;11.582;2023-11-18T12:36:00;20.10;50.00
41644;DHT22;44236;48.098;11.582;2023-11-18T12:41:37;20.10;49.40
41644;DHT22;44236;48.098;11.582;2023-11-18T12:47:03;20.10;49.30
41644;DHT22;44236;48.098;11.582;2023-11-18T12:49:40;20.10;49.20
41644;DHT22;44236;48.098;11.582;2023-11-18T12:52:12;20.10;49.00
41644;DHT22;44236;48.098;11.582;2023-11-18T12:54:40;20.10;48.90
41644;DHT22;44236;48.098;11.582;2023-11-18T12:57:10;20.10;49.50
41644;DHT22;44236;48.098;11.582;2023-11-18T12:59:40;20.10;49.00
41644;DHT22;44236;48.098;11.582;2023-11-18T13:02:09;20.10;49.20
41644;DHT22;44236;48.098;11.582;2023-11-18T13:04:41;20.10;49.20
41644;DHT22;44236;48.098;11.582;2023-11-18T13:07:07;20.10;49.00
41644;DHT22;44236;48.098;11.582;2023-11-18T13:09:37;20.10;49.10
41644;DHT22;44236;48.098;11.582;2023-11-18T13:12:04;20.10;49.10
41644;DHT22;44236;48.098;11.582;2023-11-18T13:14:33;20.10;49.00
41644;DHT22;44236;48.098;11.582;2023-11-18T13:17:02;20.10;49.00
41644;DHT22;44236;48.098;11.582;2023-11-18T13:19:31;20.10;49.10
41644;DHT22;44236;48.098;11.582;2023-11-18T13:24:31;20.10;49.00
41644;DHT22;44236;48.098;11.582;2023-11-18T13:26:57;20.10;49.10
41644;DHT22;44236;48.098;11.582;2023-11-18T13:29:24;20.10;49.00
41644;DHT22;44236;48.098;11.582;2023-11-18T13:31:50;20.10;49.00
41644;DHT22;44236;48.098;11.582;2023-11-18T13:34:19;20.10;48.90
41644;DHT22;44236;48.098;11.582;2023-11-18T13:36:47;20.10;49.00
41644;DHT22;44236;48.098;11.582;2023-11-18T13:39:19;20.10;49.00
41644;DHT22;44236;48.098;11.582;2023-11-18T13:41:50;20.10;49.00
41644;DHT22;44236;48.098;11.582;2023-11-18T13:44:35;20.10;48.90
41644;DHT22;44236;48.098;11.582;2023-11-18T13:47:07;20.00;48.80
41644;DHT22;44236;48.098;11.582;2023-11-18T13:49:33;20.10;48.90
41644;DHT22;44236;48.098;11.582;2023-11-18T13:52:00;20.10;48.90
41644;DHT22;44236;48.098;11.582;2023-11-18T13:54:29;20.00;48.70
41644;DHT22;44236;48.098;11.582;2023-11-18T13:56:59;20.00;48.80
41644;DHT22;44236;48.098;11.582;2023-11-18T13:59:25;20.00;48.80
41644;DHT22;44236;48.098;11.582;2023-11-18T14:01:55;20.00;49.00
41644;DHT22;44236;48.098;11.582;2023-11-18T14:04:28;20.00;48.90
41644;DHT22;44236;48.098;11.582;2023-11-18T14:06:58;20.00;49.10
41644;DHT22;44236;48.098;11.582;2023-11-18T14:09:35;20.10;48.80
41644;DHT22;44236;48.098;11.582;2023-11-18T14:12:02;20.10;49.20
41644;DHT22;44236;48.098;11.582;2023-11-18T14:14:31;20.20;49.10
41644;DHT22;44236;48.098;11.582;2023-11-18T14:16:57;20.20;48.90
41644;DHT22;44236;48.098;11.582;2023-11-18T14:19:28;20.20;48.90
41644;DHT22;44236;48.098;11.582;2023-11-18T14:21:54;20.30;48.70
41644;DHT22;44236;48.098;11.582;2023-11-18T14:24:21;20.30;48.80
41644;DHT22;44236;48.098;11.582;2023-11-18T14:26:53;20.30;48.90
41644;DHT22;44236;48.098;11.582;2023-11-18T14:29:19;20.30;48.70
41644;DHT22;44236;48.098;11.582;2023-11-18T14:31:45;20.30;48.70
41644;DHT22;44236;48.098;11.582;2023-11-18T14:34:12;20.30;48.70
41644;DHT22;44236;48.098;11.582;2023-11-18T14:36:37;20.30;48.60
41644;DHT22;44236;48.098;11.582;2023-11-18T14:39:04;20.30;48.80
41644;DHT22;44236;48.098;11.582;2023-11-18T14:41:30;20.30;48.70
41644;DHT22;44236;48.098;11.582;2023-11-18T14:43:57;20.30;48.70
41644;DHT22;44236;48.098;11.582;2023-11-18T14:46:23;20.30;48.70
41644;DHT22;44236;48.098;11.582;2023-11-18T14:48:49;20.30;48.70
41644;DHT22;44236;48.098;11.582;2023-11-18T14:51:15;20.40;48.70
41644;DHT22;44236;48.098;11.582;2023-11-18T14:53:41;20.40;48.80
41644;DHT22;44236;48.098;11.582;2023-11-18T14:56:09;20.40;48.60
41644;DHT22;44236;48.098;11.582;2023-11-18T14:58:35;20.40;48.50
41644;DHT22;44236;48.098;11.582;2023-11-18T15:01:04;20.40;48.60
41644;DHT22;44236;48.098;11.582;2023-11-18T15:03:32;20.40;48.50
41644;DHT22;44236;48.098;11.582;2023-11-18T15:05:58;20.40;48.50
41644;DHT22;44236;48.098;11.582;2023-11-18T15:08:24;20.40;48.60
41644;DHT22;44236;48.098;11.582;2023-11-18T15:10:49;20.40;48.40
41644;DHT22;44236;48.098;11.582;2023-11-18T15:13:16;20.40;48.40
41644;DHT22;44236;48.098;11.582;2023-11-18T15:15:43;20.40;48.60
41644;DHT22;44236;48.098;11.582;2023-11-18T15:18:10;20.40;48.60
41644;DHT22;44236;48.098;11.582;2023-11-18T15:20:45;20.40;48.60
41644;DHT22;44236;48.098;11.582;2023-11-18T15:23:11;20.40;48.40
41644;DHT22;44236;48.098;11.582;2023-11-18T15:25:37;20.40;48.60
41644;DHT22;44236;48.098;11.582;2023-11-18T15:28:04;20.40;48.80
41644;DHT22;44236;48.098;11.582;2023-11-18T15:30:35;20.40;48.70
41644;DHT22;44236;48.098;11.582;2023-11-18T15:33:01;20.40;48.50
41644;DHT22;44236;48.098;11.582;2023-11-18T15:35:27;20.40;48.50
41644;DHT22;44236;48.098;11.582;2023-11-18T15:37:54;20.50;48.60
41644;DHT22;44236;48.098;11.582;2023-11-18T15:40:20;20.50;48.50
41644;DHT22;44236;48.098;11.582;2023-11-18T15:42:48;20.50;48.60
41644;DHT22;44236;48.098;11.582;2023-11-18T15:45:18;20.50;48.40
41644;DHT22;44236;48.098;11.582;2023-11-18T15:47:44;20.50;48.50
41644;DHT22;44236;48.098;11.582;2023-11-18T15:50:12;20.50;48.50
41644;DHT22;44236;48.098;11.582;2023-11-18T15:52:50;20.50;48.70
41644;DHT22;44236;48.098;11.582;2023-11-18T15:55:19;20.50;48.60